createdAt,value
2023-10-18T00:02:18.073Z,7.03
2023-10-18T00:04:46.017Z,6.60
2023-10-18T00:07:14.879Z,7.15
2023-10-18T00:09:52.257Z,6.86
2023-10-18T00:12:20.136Z,6.76
2023-10-18T00:14:51.091Z,6.84
2023-10-18T00:17:18.731Z,6.85
2023-10-18T00:19:47.248Z,5.93
2023-10-18T00:22:14.807Z,7.06
2023-10-18T00:24:43.250Z,6.86
2023-10-18T00:27:10.788Z,7.13
2023-10-18T00:29:38.571Z,7.24
2023-10-18T00:32:06.768Z,7.27
2023-10-18T00:34:34.314Z,6.88
2023-10-18T00:37:02.257Z,6.88
2023-10-18T00:39:30.843Z,7.26
2023-10-18T00:42:18.457Z,6.97
2023-10-18T00:44:56.231Z,7.25
2023-10-18T00:47:25.170Z,7.17
2023-10-18T00:49:54.019Z,7.18
2023-10-18T00:52:24.847Z,7.37
2023-10-18T00:54:52.469Z,6.79
2023-10-18T00:57:39.165Z,6.71
2023-10-18T01:00:20.535Z,6.98
2023-10-18T01:02:51.236Z,6.55
2023-10-18T01:05:21.988Z,6.29
2023-10-18T01:07:54.442Z,6.35
2023-10-18T01:10:25.273Z,5.66
2023-10-18T01:12:55.528Z,6.31
2023-10-18T01:15:24.358Z,5.95
2023-10-18T01:17:52.010Z,6.51
2023-10-18T01:20:39.198Z,6.62
2023-10-18T01:23:08.601Z,6.36
2023-10-18T01:25:37.142Z,6.55
2023-10-18T01:28:06.786Z,6.61
2023-10-18T01:30:34.677Z,6.79
2023-10-18T01:33:02.781Z,6.21
2023-10-18T01:35:32.633Z,5.98
2023-10-18T01:38:02.052Z,6.13
2023-10-18T01:40:29.613Z,5.79
2023-10-18T01:42:58.068Z,6.32
2023-10-18T01:45:36.847Z,6.58
2023-10-18T01:48:11.151Z,6.29
2023-10-18T01:50:40.567Z,6.38
2023-10-18T01:53:17.143Z,6.34
2023-10-18T01:55:52.523Z,6.17
2023-10-18T01:58:26.599Z,5.90
2023-10-18T02:00:57.913Z,5.81
2023-10-18T02:03:25.792Z,6.55
2023-10-18T02:05:53.493Z,6.70
2023-10-18T02:08:22.166Z,4.96
2023-10-18T02:10:51.615Z,5.89
2023-10-18T02:13:20.653Z,5.87
2023-10-18T02:15:49.687Z,6.15
2023-10-18T02:18:18.130Z,5.92
2023-10-18T02:20:53.101Z,6.23
2023-10-18T02:23:23.141Z,6.32
2023-10-18T02:25:51.250Z,6.39
2023-10-18T02:28:29.099Z,6.47
2023-10-18T02:30:59.194Z,6.55
2023-10-18T02:33:42.183Z,6.81
2023-10-18T02:36:21.913Z,6.65
2023-10-18T02:38:54.085Z,6.09
2023-10-18T02:41:30.923Z,5.99
2023-10-18T02:43:59.907Z,6.10
2023-10-18T02:46:28.192Z,5.99
2023-10-18T02:48:58.510Z,6.68
2023-10-18T02:51:28.075Z,6.74
2023-10-18T02:54:20.189Z,7.05
2023-10-18T02:57:00.460Z,6.75
2023-10-18T02:59:29.675Z,6.41
2023-10-18T03:01:58.589Z,6.57
2023-10-18T03:04:28.938Z,6.26
2023-10-18T03:06:57.222Z,6.72
2023-10-18T03:09:28.897Z,6.48
2023-10-18T03:11:58.239Z,6.20
2023-10-18T03:14:41.377Z,6.09
2023-10-18T03:17:35.715Z,6.14
2023-10-18T03:20:20.918Z,6.13
2023-10-18T03:22:50.309Z,6.29
2023-10-18T03:25:18.716Z,6.20
2023-10-18T03:27:52.700Z,6.17
2023-10-18T03:30:20.406Z,5.72
2023-10-18T03:32:55.718Z,6.23
2023-10-18T03:35:23.765Z,6.19
2023-10-18T03:37:51.464Z,6.21
2023-10-18T03:40:25.390Z,5.85
2023-10-18T03:42:56.254Z,5.56
2023-10-18T03:45:29.180Z,5.64
2023-10-18T03:48:00.716Z,5.45
2023-10-18T03:50:41.817Z,5.58
2023-10-18T03:53:14.418Z,5.78
2023-10-18T03:55:43.867Z,5.91
2023-10-18T03:58:23.713Z,5.96
2023-10-18T04:00:58.087Z,6.33
2023-10-18T04:03:31.146Z,6.02
2023-10-18T04:06:06.987Z,6.35
2023-10-18T04:08:35.774Z,6.18
2023-10-18T04:11:03.474Z,6.30
2023-10-18T04:13:33.694Z,6.36
2023-10-18T04:16:04.982Z,6.31
2023-10-18T04:18:36.211Z,6.03
2023-10-18T04:21:06.494Z,6.34
2023-10-18T04:23:35.734Z,5.91
2023-10-18T04:26:04.965Z,5.70
2023-10-18T04:28:38.721Z,5.88
2023-10-18T04:31:12.639Z,5.08
2023-10-18T04:33:44.286Z,5.50
2023-10-18T04:36:13.914Z,5.65
2023-10-18T04:38:46.078Z,5.95
2023-10-18T04:41:24.548Z,6.18
2023-10-18T04:44:00.814Z,6.31
2023-10-18T04:46:30.828Z,5.90
2023-10-18T04:49:01.581Z,5.54
2023-10-18T04:51:50.000Z,5.97
2023-10-18T04:54:19.022Z,5.62
2023-10-18T04:56:48.190Z,5.93
2023-10-18T04:59:19.941Z,5.81
2023-10-18T05:01:55.539Z,5.65
2023-10-18T05:04:34.386Z,5.00
2023-10-18T05:07:10.985Z,4.60
2023-10-18T05:09:45.420Z,5.33
2023-10-18T05:12:16.308Z,5.51
2023-10-18T05:17:25.311Z,5.36
2023-10-18T05:19:57.356Z,5.63
2023-10-18T05:22:26.860Z,5.11
2023-10-18T05:25:16.400Z,5.40
2023-10-18T05:28:01.084Z,5.48
2023-10-18T05:30:49.424Z,5.71
2023-10-18T05:33:30.872Z,5.54
2023-10-18T05:36:23.398Z,6.39
2023-10-18T05:38:54.065Z,5.49
2023-10-18T05:41:21.612Z,5.37
2023-10-18T05:43:49.169Z,6.17
2023-10-18T05:46:18.823Z,6.40
2023-10-18T05:48:46.550Z,6.67
2023-10-18T05:54:00.257Z,6.98
2023-10-18T05:56:31.180Z,6.50
2023-10-18T05:59:27.397Z,7.43
2023-10-18T06:02:02.425Z,7.53
2023-10-18T06:04:39.654Z,7.84
2023-10-18T06:07:14.395Z,7.60
2023-10-18T06:09:48.712Z,7.79
2023-10-18T06:12:43.669Z,8.25
2023-10-18T06:15:17.648Z,7.94
2023-10-18T06:17:50.233Z,8.72
2023-10-18T06:20:30.214Z,9.23
2023-10-18T06:23:29.516Z,9.66
2023-10-18T06:26:01.176Z,8.64
2023-10-18T06:28:32.120Z,9.74
2023-10-18T06:31:00.610Z,10.25
2023-10-18T06:33:36.517Z,10.42
2023-10-18T06:36:13.331Z,10.60
2023-10-18T06:38:43.602Z,11.03
2023-10-18T06:41:20.073Z,11.46
2023-10-18T06:43:49.653Z,11.98
2023-10-18T06:46:28.359Z,12.16
2023-10-18T06:49:11.622Z,12.68
2023-10-18T06:51:44.621Z,12.84
2023-10-18T06:54:15.696Z,13.03
2023-10-18T06:56:46.768Z,13.40
2023-10-18T06:59:14.775Z,13.59
2023-10-18T07:02:08.462Z,13.92
2023-10-18T07:04:39.524Z,14.16
2023-10-18T07:07:21.141Z,14.73
2023-10-18T07:09:56.263Z,15.99
2023-10-18T07:12:37.452Z,17.32
2023-10-18T07:15:10.636Z,17.67
2023-10-18T07:17:38.831Z,18.62
2023-10-18T07:20:16.784Z,19.76
2023-10-18T07:22:50.698Z,19.81
2023-10-18T07:25:22.603Z,17.93
2023-10-18T07:27:51.117Z,19.63
2023-10-18T07:30:18.821Z,19.87
2023-10-18T07:32:49.297Z,20.40
2023-10-18T07:35:32.055Z,21.17
2023-10-18T07:37:59.574Z,21.02
2023-10-18T07:40:34.558Z,21.80
2023-10-18T07:43:06.634Z,22.09
2023-10-18T07:45:34.162Z,21.53
2023-10-18T07:48:06.414Z,21.28
2023-10-18T07:50:43.192Z,22.34
2023-10-18T07:53:14.040Z,23.12
2023-10-18T07:55:49.746Z,22.85
2023-10-18T07:58:41.340Z,21.45
2023-10-18T08:01:10.850Z,22.62
2023-10-18T08:03:39.673Z,22.56
2023-10-18T08:06:27.380Z,24.33
2023-10-18T08:08:55.263Z,23.68
2023-10-18T08:11:25.132Z,25.50
2023-10-18T08:13:54.161Z,19.47
2023-10-18T08:16:22.313Z,22.12
2023-10-18T08:18:58.542Z,22.10
2023-10-18T08:21:49.251Z,22.15
2023-10-18T08:24:21.877Z,20.67
2023-10-18T08:26:49.693Z,21.76
2023-10-18T08:29:17.623Z,22.03
2023-10-18T08:31:49.637Z,23.07
2023-10-18T08:34:19.243Z,23.34
2023-10-18T08:36:47.021Z,21.39
2023-10-18T08:39:14.563Z,21.37
2023-10-18T08:42:00.646Z,24.00
2023-10-18T08:44:30.947Z,25.35
2023-10-18T08:47:10.129Z,25.46
2023-10-18T08:49:57.462Z,25.24
2023-10-18T08:52:25.400Z,26.05
2023-10-18T08:54:54.388Z,26.05
2023-10-18T08:57:37.301Z,26.33
2023-10-18T09:00:38.529Z,29.08
2023-10-18T09:03:08.791Z,25.91
2023-10-18T09:05:37.433Z,25.69
2023-10-18T09:08:06.289Z,24.54
2023-10-18T09:10:35.557Z,25.34
2023-10-18T09:13:19.408Z,27.68
2023-10-18T09:16:00.196Z,27.35
2023-10-18T09:18:32.279Z,25.68
2023-10-18T09:21:09.446Z,25.19
2023-10-18T09:23:37.277Z,24.75
2023-10-18T09:26:19.799Z,25.92
2023-10-18T09:28:48.081Z,25.59
2023-10-18T09:31:23.024Z,27.81
2023-10-18T09:33:53.635Z,23.99
2023-10-18T09:36:22.228Z,25.14
2023-10-18T09:38:51.339Z,25.19
2023-10-18T09:41:19.598Z,28.47
2023-10-18T09:43:50.417Z,26.89
2023-10-18T09:46:19.457Z,28.34
2023-10-18T09:48:48.133Z,26.01
2023-10-18T09:51:22.108Z,27.00
2023-10-18T09:53:55.553Z,24.04
2023-10-18T09:56:34.235Z,25.82
2023-10-18T09:59:06.893Z,27.45
2023-10-18T10:01:44.538Z,26.41
2023-10-18T10:04:15.769Z,28.28
2023-10-18T10:06:48.057Z,29.19
2023-10-18T10:09:17.095Z,27.54
2023-10-18T10:11:46.656Z,27.21
2023-10-18T10:14:18.738Z,27.20
2023-10-18T10:16:55.869Z,26.01
2023-10-18T10:19:30.345Z,27.51
2023-10-18T10:22:06.448Z,27.87
2023-10-18T10:24:56.236Z,28.79
2023-10-18T10:27:33.593Z,27.83
2023-10-18T10:30:20.879Z,26.38
2023-10-18T10:32:50.710Z,28.58
2023-10-18T10:35:25.335Z,29.98
2023-10-18T10:37:53.799Z,27.98
2023-10-18T10:40:29.708Z,27.96
2023-10-18T10:43:11.559Z,29.79
2023-10-18T10:45:55.136Z,27.69
2023-10-18T10:48:28.769Z,30.41
2023-10-18T10:51:21.354Z,27.48
2023-10-18T10:53:58.652Z,31.63
2023-10-18T10:56:34.171Z,30.86
2023-10-18T10:59:08.809Z,30.08
2023-10-18T11:01:58.524Z,31.09
2023-10-18T11:04:26.637Z,28.94
2023-10-18T11:06:59.379Z,29.19
2023-10-18T11:09:34.661Z,31.36
2023-10-18T11:12:11.768Z,30.24
2023-10-18T11:14:40.042Z,30.70
2023-10-18T11:17:17.219Z,29.66
2023-10-18T11:19:52.777Z,27.17
2023-10-18T11:22:23.701Z,28.35
2023-10-18T11:24:54.861Z,29.19
2023-10-18T11:27:26.990Z,29.06
2023-10-18T11:30:12.487Z,29.60
2023-10-18T11:32:42.021Z,30.03
2023-10-18T11:35:19.536Z,30.56
2023-10-18T11:37:49.160Z,28.40
2023-10-18T11:40:19.880Z,29.30
2023-10-18T11:43:10.132Z,29.01
2023-10-18T11:45:40.220Z,28.16
2023-10-18T11:48:11.369Z,30.94
2023-10-18T11:50:49.923Z,30.44
2023-10-18T11:53:21.608Z,26.09
2023-10-18T11:55:56.762Z,28.49
2023-10-18T11:58:29.951Z,29.82
2023-10-18T12:01:02.666Z,31.85
2023-10-18T12:03:30.957Z,31.32
2023-10-18T12:05:59.078Z,30.74
2023-10-18T12:08:31.464Z,31.65
2023-10-18T12:10:59.135Z,31.02
2023-10-18T12:13:27.834Z,30.78
2023-10-18T12:16:01.607Z,31.49
2023-10-18T12:18:30.354Z,29.33
2023-10-18T12:20:59.510Z,28.82
2023-10-18T12:23:27.575Z,29.65
2023-10-18T12:25:55.137Z,28.96
2023-10-18T12:28:36.899Z,29.68
2023-10-18T12:31:14.156Z,28.22
2023-10-18T12:33:42.179Z,28.47
2023-10-18T12:36:09.857Z,28.08
2023-10-18T12:38:39.607Z,27.20
2023-10-18T12:41:19.729Z,28.44
2023-10-18T12:43:47.720Z,27.24
2023-10-18T12:46:21.021Z,29.15
2023-10-18T12:48:51.298Z,28.75
2023-10-18T12:51:19.851Z,26.88
2023-10-18T12:58:31.525Z,24.93
2023-10-18T13:01:26.059Z,23.48
2023-10-18T13:04:00.163Z,23.97
2023-10-18T13:06:36.475Z,24.94
2023-10-18T13:09:24.926Z,24.54
2023-10-18T13:12:01.804Z,25.07
2023-10-18T13:14:33.108Z,25.99
2023-10-18T13:17:04.766Z,24.85
2023-10-18T13:19:33.454Z,25.32
2023-10-18T13:22:01.136Z,24.31
2023-10-18T13:24:32.583Z,22.73
2023-10-18T13:27:04.186Z,24.13
2023-10-18T13:29:32.563Z,24.25
2023-10-18T13:32:07.690Z,24.42
2023-10-18T13:34:38.263Z,23.51
2023-10-18T13:37:11.145Z,22.53
2023-10-18T13:39:43.466Z,23.84
2023-10-18T13:42:13.035Z,23.73
2023-10-18T13:44:42.659Z,21.69
2023-10-18T13:47:14.191Z,22.71
2023-10-18T13:49:43.315Z,21.27
2023-10-18T13:52:12.773Z,21.47
2023-10-18T13:54:42.348Z,22.18
2023-10-18T13:57:10.211Z,21.59
2023-10-18T13:59:39.504Z,20.12
2023-10-18T14:02:07.844Z,19.64
2023-10-18T14:04:36.808Z,19.86
2023-10-18T14:07:06.486Z,20.07
2023-10-18T14:09:35.891Z,20.16
2023-10-18T14:12:05.301Z,20.15
2023-10-18T14:14:34.473Z,18.95
2023-10-18T14:17:04.884Z,19.98
2023-10-18T14:19:34.058Z,20.35
2023-10-18T14:22:02.013Z,19.66
2023-10-18T14:24:30.765Z,19.67
2023-10-18T14:27:00.528Z,19.78
2023-10-18T14:29:28.679Z,19.31
2023-10-18T14:31:56.494Z,19.60
2023-10-18T14:34:24.315Z,18.94
2023-10-18T14:36:52.439Z,18.97
2023-10-18T14:41:54.116Z,18.89
2023-10-18T14:44:21.807Z,19.68
2023-10-18T14:46:49.400Z,18.86
2023-10-18T14:49:16.921Z,19.15
2023-10-18T14:51:45.686Z,19.49
2023-10-18T14:54:15.692Z,18.42
2023-10-18T14:56:44.223Z,18.98
2023-10-18T14:59:12.236Z,19.66
2023-10-18T15:01:40.876Z,19.34
2023-10-18T15:04:08.776Z,19.21
2023-10-18T15:06:38.775Z,19.22
2023-10-18T15:09:07.592Z,18.68
2023-10-18T15:11:35.424Z,18.79
2023-10-18T15:14:04.280Z,19.01
2023-10-18T15:16:32.142Z,18.77
2023-10-18T15:18:59.838Z,18.34
2023-10-18T15:21:27.957Z,18.38
2023-10-18T15:23:55.432Z,18.21
2023-10-18T15:26:27.418Z,17.91
2023-10-18T15:28:57.085Z,17.24
2023-10-18T15:31:24.824Z,17.40
2023-10-18T15:33:53.138Z,16.99
2023-10-18T15:36:24.641Z,16.84
2023-10-18T15:38:55.182Z,16.95
2023-10-18T15:41:24.766Z,16.92
2023-10-18T15:43:54.497Z,16.63
2023-10-18T15:46:30.628Z,16.17
2023-10-18T15:48:59.012Z,16.09
2023-10-18T15:51:28.767Z,16.27
2023-10-18T15:53:59.753Z,16.24
2023-10-18T15:56:29.783Z,16.22
2023-10-18T15:58:59.742Z,16.27
2023-10-18T16:01:31.057Z,16.21
2023-10-18T16:04:01.417Z,15.91
2023-10-18T16:06:30.278Z,15.75
2023-10-18T16:08:57.797Z,15.65
2023-10-18T16:11:25.396Z,15.49
2023-10-18T16:13:57.112Z,15.26
2023-10-18T16:16:27.487Z,14.86
2023-10-18T16:18:56.999Z,14.79
2023-10-18T16:21:25.413Z,14.77
2023-10-18T16:23:53.701Z,14.67
2023-10-18T16:26:23.637Z,14.70
2023-10-18T16:28:51.906Z,14.68
2023-10-18T16:31:22.870Z,14.52
2023-10-18T16:33:50.622Z,14.39
2023-10-18T16:36:19.332Z,14.05
2023-10-18T16:38:52.150Z,14.13
2023-10-18T16:41:20.406Z,13.60
2023-10-18T16:43:48.994Z,13.62
2023-10-18T16:46:17.995Z,13.46
2023-10-18T16:48:47.315Z,13.57
2023-10-18T16:51:17.772Z,12.66
2023-10-18T16:53:50.410Z,13.24
2023-10-18T16:56:18.509Z,13.06
2023-10-18T16:58:49.845Z,12.88
2023-10-18T17:01:20.076Z,12.11
2023-10-18T17:03:48.952Z,12.93
2023-10-18T17:06:17.725Z,13.02
2023-10-18T17:08:47.083Z,12.35
2023-10-18T17:11:15.976Z,12.43
2023-10-18T17:13:48.811Z,12.58
2023-10-18T17:16:18.487Z,12.83
2023-10-18T17:18:48.481Z,12.58
2023-10-18T17:21:20.652Z,12.72
2023-10-18T17:23:51.095Z,12.55
2023-10-18T17:26:19.257Z,12.75
2023-10-18T17:28:50.149Z,13.00
2023-10-18T17:31:23.766Z,13.47
2023-10-18T17:33:51.565Z,13.44
2023-10-18T17:36:20.258Z,13.37
2023-10-18T17:38:49.627Z,13.89
2023-10-18T17:41:17.485Z,14.11
2023-10-18T17:43:48.023Z,13.86
2023-10-18T17:46:16.731Z,13.53
2023-10-18T17:48:44.352Z,13.83
2023-10-18T17:51:12.978Z,14.14
2023-10-18T17:53:41.059Z,13.95
2023-10-18T17:56:11.770Z,14.17
2023-10-18T17:58:39.730Z,13.81
2023-10-18T18:01:07.668Z,13.81
2023-10-18T18:03:37.592Z,13.66
2023-10-18T18:06:09.562Z,13.73
2023-10-18T18:08:41.511Z,13.62
2023-10-18T18:11:09.444Z,13.72
2023-10-18T18:13:39.564Z,13.63
2023-10-18T18:16:17.912Z,14.55
2023-10-18T18:18:45.750Z,14.65
2023-10-18T18:21:13.842Z,14.68
2023-10-18T18:23:45.612Z,14.70
2023-10-18T18:26:15.972Z,14.82
2023-10-18T18:28:44.626Z,14.82
2023-10-18T18:31:14.722Z,14.91
2023-10-18T18:33:42.313Z,14.63
2023-10-18T18:36:10.295Z,14.66
2023-10-18T18:38:37.982Z,14.28
2023-10-18T18:41:09.507Z,14.33
2023-10-18T18:43:37.590Z,14.31
2023-10-18T18:46:05.160Z,14.02
2023-10-18T18:48:33.370Z,13.81
2023-10-18T18:51:05.347Z,13.71
2023-10-18T18:53:36.778Z,14.03
2023-10-18T18:56:09.281Z,13.89
2023-10-18T18:58:36.925Z,13.18
2023-10-18T19:01:05.230Z,12.85
2023-10-18T19:03:33.525Z,13.07
2023-10-18T19:06:06.433Z,13.09
2023-10-18T19:08:34.065Z,12.55
2023-10-18T19:11:01.929Z,12.53
2023-10-18T19:13:29.876Z,12.83
2023-10-18T19:16:07.028Z,13.27
2023-10-18T19:18:36.502Z,12.97
2023-10-18T19:21:10.460Z,12.96
2023-10-18T19:23:41.875Z,13.66
2023-10-18T19:26:13.392Z,13.90
2023-10-18T19:28:42.173Z,13.89
2023-10-18T19:31:17.878Z,13.84
2023-10-18T19:33:46.851Z,13.56
2023-10-18T19:36:16.625Z,13.70
2023-10-18T19:38:48.813Z,13.71
2023-10-18T19:41:18.548Z,13.99
2023-10-18T19:43:46.481Z,14.04
2023-10-18T19:46:14.439Z,14.15
2023-10-18T19:48:43.189Z,13.88
2023-10-18T19:51:16.033Z,13.97
2023-10-18T19:53:45.695Z,14.95
2023-10-18T19:56:14.807Z,14.85
2023-10-18T19:58:42.997Z,14.07
2023-10-18T20:01:10.621Z,14.38
2023-10-18T20:03:40.498Z,14.78
2023-10-18T20:06:08.688Z,14.75
2023-10-18T20:08:37.198Z,14.64
2023-10-18T20:11:06.958Z,14.79
2023-10-18T20:13:34.462Z,14.60
2023-10-18T20:16:02.641Z,14.22
2023-10-18T20:18:31.679Z,13.93
2023-10-18T20:21:00.454Z,13.01
2023-10-18T20:23:28.114Z,12.93
2023-10-18T20:26:06.555Z,12.28
2023-10-18T20:28:34.142Z,11.84
2023-10-18T20:31:02.369Z,11.69
2023-10-18T20:33:30.684Z,11.28
2023-10-18T20:35:58.968Z,11.45
2023-10-18T20:38:28.126Z,11.07
2023-10-18T20:40:55.814Z,11.20
2023-10-18T20:43:30.390Z,10.67
2023-10-18T20:46:13.395Z,10.57
2023-10-18T20:48:41.667Z,10.67
2023-10-18T20:51:11.625Z,10.07
2023-10-18T20:53:41.915Z,10.51
2023-10-18T20:56:09.720Z,10.69
2023-10-18T20:58:42.284Z,10.81
2023-10-18T21:01:29.081Z,10.83
2023-10-18T21:03:59.561Z,10.35
2023-10-18T21:06:31.560Z,10.16
2023-10-18T21:08:59.467Z,9.23
2023-10-18T21:11:27.049Z,9.89
2023-10-18T21:13:55.389Z,9.64
2023-10-18T21:16:23.163Z,9.93
2023-10-18T21:18:50.738Z,9.53
2023-10-18T21:21:19.664Z,9.87
2023-10-18T21:23:47.217Z,9.94
2023-10-18T21:26:15.056Z,9.46
2023-10-18T21:28:44.244Z,9.04
2023-10-18T21:31:14.640Z,9.59
2023-10-18T21:33:42.683Z,9.75
2023-10-18T21:36:12.700Z,9.82
2023-10-18T21:38:42.129Z,9.92
2023-10-18T21:41:19.880Z,10.41
2023-10-18T21:43:49.394Z,10.45
2023-10-18T21:46:17.687Z,10.69
2023-10-18T21:48:45.782Z,10.94
2023-10-18T21:51:14.688Z,11.01
2023-10-18T21:53:43.145Z,11.16
2023-10-18T21:56:14.905Z,11.36
2023-10-18T21:58:47.112Z,10.88
2023-10-18T22:01:34.526Z,11.24
2023-10-18T22:04:05.165Z,11.41
2023-10-18T22:06:35.379Z,11.26
2023-10-18T22:09:23.149Z,11.93
2023-10-18T22:11:52.248Z,12.22
2023-10-18T22:14:20.368Z,12.29
2023-10-18T22:16:54.386Z,12.45
2023-10-18T22:19:31.774Z,12.53
2023-10-18T22:22:12.481Z,11.73
2023-10-18T22:24:40.771Z,12.37
2023-10-18T22:27:15.801Z,12.16
2023-10-18T22:29:48.777Z,12.10
2023-10-18T22:32:25.589Z,12.76
2023-10-18T22:34:53.966Z,12.97
2023-10-18T22:37:23.116Z,13.25
2023-10-18T22:39:52.010Z,12.91
2023-10-18T22:42:39.958Z,13.27
2023-10-18T22:45:25.620Z,13.16
2023-10-18T22:47:53.798Z,13.62
2023-10-18T22:50:21.468Z,13.53
2023-10-18T22:52:53.223Z,13.26
2023-10-18T22:55:24.117Z,13.79
2023-10-18T22:58:00.869Z,13.86
2023-10-18T23:00:32.818Z,13.86
2023-10-18T23:03:11.151Z,14.38
2023-10-18T23:05:42.949Z,14.40
2023-10-18T23:08:22.079Z,13.84
2023-10-18T23:10:53.250Z,14.02
2023-10-18T23:13:46.606Z,14.25
2023-10-18T23:16:37.237Z,14.06
2023-10-18T23:19:11.596Z,14.93
2023-10-18T23:21:42.854Z,15.91
2023-10-18T23:24:16.557Z,15.66
2023-10-18T23:27:02.819Z,15.50
2023-10-18T23:29:40.884Z,15.84
2023-10-18T23:32:17.997Z,15.70
2023-10-18T23:34:51.767Z,15.22
2023-10-18T23:37:31.212Z,15.92
2023-10-18T23:39:58.871Z,15.53
2023-10-18T23:42:34.781Z,14.87
2023-10-18T23:45:22.607Z,15.67
2023-10-18T23:47:50.183Z,15.49
2023-10-18T23:50:36.506Z,15.47
2023-10-18T23:53:13.244Z,15.05
2023-10-18T23:55:52.965Z,15.44
2023-10-18T23:58:30.276Z,15.53
